sensor_id;sensor_type;location;lat;lon;timestamp;P1;durP1;ratioP1;P2;durP2;ratioP2
78322;SDS011;67583;50.616;-3.404;2023-04-25T00:01:44;17.13;;;8.70;;
78322;SDS011;67583;50.616;-3.404;2023-04-25T00:04:10;23.13;;;12.07;;
78322;SDS011;67583;50.616;-3.404;2023-04-25T00:06:37;19.27;;;9.35;;
78322;SDS011;67583;50.616;-3.404;2023-04-25T00:09:03;14.57;;;8.70;;
78322;SDS011;67583;50.616;-3.404;2023-04-25T00:11:32;20.90;;;10.30;;
78322;SDS011;67583;50.616;-3.404;2023-04-25T00:13:57;14.48;;;7.50;;
78322;SDS011;67583;50.616;-3.404;2023-04-25T00:16:24;13.68;;;8.70;;
78322;SDS011;67583;50.616;-3.404;2023-04-25T00:18:50;16.48;;;9.15;;
78322;SDS011;67583;50.616;-3.404;2023-04-25T00:21:18;23.15;;;12.23;;
78322;SDS011;67583;50.616;-3.404;2023-04-25T00:23:44;11.18;;;6.68;;
78322;SDS011;67583;50.616;-3.404;2023-04-25T00:26:10;13.30;;;7.07;;
78322;SDS011;67583;50.616;-3.404;2023-04-25T00:28:36;14.55;;;8.70;;
78322;SDS011;67583;50.616;-3.404;2023-04-25T00:33:27;14.07;;;6.68;;
78322;SDS011;67583;50.616;-3.404;2023-04-25T00:38:18;13.80;;;8.57;;
78322;SDS011;67583;50.616;-3.404;2023-04-25T00:40:43;10.57;;;6.70;;
78322;SDS011;67583;50.616;-3.404;2023-04-25T00:43:09;12.30;;;7.13;;
78322;SDS011;67583;50.616;-3.404;2023-04-25T00:45:34;17.60;;;10.02;;
78322;SDS011;67583;50.616;-3.404;2023-04-25T00:48:03;14.18;;;8.35;;
78322;SDS011;67583;50.616;-3.404;2023-04-25T00:50:29;19.10;;;11.13;;
78322;SDS011;67583;50.616;-3.404;2023-04-25T00:52:55;24.45;;;12.45;;
78322;SDS011;67583;50.616;-3.404;2023-04-25T00:57:45;16.58;;;10.38;;
78322;SDS011;67583;50.616;-3.404;2023-04-25T01:00:12;18.85;;;10.90;;
78322;SDS011;67583;50.616;-3.404;2023-04-25T01:02:39;16.00;;;9.70;;
78322;SDS011;67583;50.616;-3.404;2023-04-25T01:05:06;15.50;;;8.43;;
78322;SDS011;67583;50.616;-3.404;2023-04-25T01:07:31;16.10;;;9.82;;
78322;SDS011;67583;50.616;-3.404;2023-04-25T01:09:57;12.40;;;7.90;;
78322;SDS011;67583;50.616;-3.404;2023-04-25T01:12:23;14.80;;;7.72;;
78322;SDS011;67583;50.616;-3.404;2023-04-25T01:14:48;25.27;;;15.57;;
78322;SDS011;67583;50.616;-3.404;2023-04-25T01:17:14;23.70;;;13.40;;
78322;SDS011;67583;50.616;-3.404;2023-04-25T01:19:40;14.90;;;9.05;;
78322;SDS011;67583;50.616;-3.404;2023-04-25T01:22:05;14.88;;;8.93;;
78322;SDS011;67583;50.616;-3.404;2023-04-25T01:26:57;12.73;;;7.25;;
78322;SDS011;67583;50.616;-3.404;2023-04-25T01:29:23;14.98;;;8.10;;
78322;SDS011;67583;50.616;-3.404;2023-04-25T01:31:49;13.32;;;7.68;;
78322;SDS011;67583;50.616;-3.404;2023-04-25T01:34:16;11.13;;;6.97;;
78322;SDS011;67583;50.616;-3.404;2023-04-25T01:36:41;13.13;;;7.13;;
78322;SDS011;67583;50.616;-3.404;2023-04-25T01:39:07;13.75;;;8.65;;
78322;SDS011;67583;50.616;-3.404;2023-04-25T01:43:59;13.25;;;7.28;;
78322;SDS011;67583;50.616;-3.404;2023-04-25T01:46:25;16.55;;;9.30;;
78322;SDS011;67583;50.616;-3.404;2023-04-25T01:51:16;17.08;;;10.63;;
78322;SDS011;67583;50.616;-3.404;2023-04-25T01:53:41;16.25;;;9.50;;
78322;SDS011;67583;50.616;-3.404;2023-04-25T01:56:07;18.13;;;9.65;;
78322;SDS011;67583;50.616;-3.404;2023-04-25T01:58:33;15.27;;;9.15;;
78322;SDS011;67583;50.616;-3.404;2023-04-25T02:00:58;13.27;;;6.82;;
78322;SDS011;67583;50.616;-3.404;2023-04-25T02:03:24;14.57;;;8.15;;
78322;SDS011;67583;50.616;-3.404;2023-04-25T02:08:16;15.45;;;6.38;;
78322;SDS011;67583;50.616;-3.404;2023-04-25T02:10:42;13.07;;;6.88;;
78322;SDS011;67583;50.616;-3.404;2023-04-25T02:13:07;10.35;;;6.00;;
78322;SDS011;67583;50.616;-3.404;2023-04-25T02:15:33;12.52;;;6.97;;
78322;SDS011;67583;50.616;-3.404;2023-04-25T02:17:58;13.45;;;8.20;;
78322;SDS011;67583;50.616;-3.404;2023-04-25T02:20:25;14.07;;;6.32;;
78322;SDS011;67583;50.616;-3.404;2023-04-25T02:22:51;12.02;;;6.47;;
78322;SDS011;67583;50.616;-3.404;2023-04-25T02:27:42;10.75;;;6.38;;
78322;SDS011;67583;50.616;-3.404;2023-04-25T02:32:34;13.55;;;7.13;;
78322;SDS011;67583;50.616;-3.404;2023-04-25T02:37:28;10.73;;;6.80;;
78322;SDS011;67583;50.616;-3.404;2023-04-25T02:39:54;12.30;;;6.72;;
78322;SDS011;67583;50.616;-3.404;2023-04-25T02:44:45;14.13;;;8.23;;
78322;SDS011;67583;50.616;-3.404;2023-04-25T02:47:12;13.82;;;7.35;;
78322;SDS011;67583;50.616;-3.404;2023-04-25T02:52:03;11.90;;;7.53;;
78322;SDS011;67583;50.616;-3.404;2023-04-25T02:54:28;17.75;;;9.27;;
78322;SDS011;67583;50.616;-3.404;2023-04-25T02:59:19;13.32;;;6.65;;
78322;SDS011;67583;50.616;-3.404;2023-04-25T03:04:10;11.90;;;7.03;;
78322;SDS011;67583;50.616;-3.404;2023-04-25T03:06:35;11.05;;;7.38;;
78322;SDS011;67583;50.616;-3.404;2023-04-25T03:09:01;14.20;;;8.00;;
78322;SDS011;67583;50.616;-3.404;2023-04-25T03:11:26;12.00;;;6.38;;
78322;SDS011;67583;50.616;-3.404;2023-04-25T03:13:52;15.43;;;6.95;;
78322;SDS011;67583;50.616;-3.404;2023-04-25T03:16:17;14.13;;;8.23;;
78322;SDS011;67583;50.616;-3.404;2023-04-25T03:18:42;11.95;;;6.90;;
78322;SDS011;67583;50.616;-3.404;2023-04-25T03:21:08;16.77;;;8.27;;
78322;SDS011;67583;50.616;-3.404;2023-04-25T03:25:58;16.57;;;7.77;;
78322;SDS011;67583;50.616;-3.404;2023-04-25T03:28:24;10.65;;;5.57;;
78322;SDS011;67583;50.616;-3.404;2023-04-25T03:30:49;11.27;;;5.90;;
78322;SDS011;67583;50.616;-3.404;2023-04-25T03:33:14;10.52;;;5.72;;
78322;SDS011;67583;50.616;-3.404;2023-04-25T03:35:40;10.15;;;6.65;;
78322;SDS011;67583;50.616;-3.404;2023-04-25T03:40:31;16.27;;;7.20;;
78322;SDS011;67583;50.616;-3.404;2023-04-25T03:45:22;17.67;;;9.13;;
78322;SDS011;67583;50.616;-3.404;2023-04-25T03:50:12;12.85;;;8.43;;
78322;SDS011;67583;50.616;-3.404;2023-04-25T03:52:38;12.88;;;8.10;;
78322;SDS011;67583;50.616;-3.404;2023-04-25T03:57:29;12.02;;;6.90;;
78322;SDS011;67583;50.616;-3.404;2023-04-25T04:02:20;16.52;;;8.43;;
78322;SDS011;67583;50.616;-3.404;2023-04-25T04:07:11;14.65;;;7.45;;
78322;SDS011;67583;50.616;-3.404;2023-04-25T04:09:36;11.70;;;6.07;;
78322;SDS011;67583;50.616;-3.404;2023-04-25T04:14:28;13.88;;;6.38;;
78322;SDS011;67583;50.616;-3.404;2023-04-25T04:16:54;14.18;;;6.82;;
78322;SDS011;67583;50.616;-3.404;2023-04-25T04:21:45;12.20;;;5.97;;
78322;SDS011;67583;50.616;-3.404;2023-04-25T04:24:10;10.65;;;5.68;;
78322;SDS011;67583;50.616;-3.404;2023-04-25T04:29:02;10.70;;;5.55;;
78322;SDS011;67583;50.616;-3.404;2023-04-25T04:31:29;11.57;;;5.90;;
78322;SDS011;67583;50.616;-3.404;2023-04-25T04:33:55;12.07;;;6.20;;
78322;SDS011;67583;50.616;-3.404;2023-04-25T04:36:20;11.63;;;6.05;;
78322;SDS011;67583;50.616;-3.404;2023-04-25T04:38:47;17.38;;;7.30;;
78322;SDS011;67583;50.616;-3.404;2023-04-25T04:41:12;20.92;;;7.47;;
78322;SDS011;67583;50.616;-3.404;2023-04-25T04:43:37;17.40;;;7.35;;
78322;SDS011;67583;50.616;-3.404;2023-04-25T04:46:04;10.55;;;5.40;;
78322;SDS011;67583;50.616;-3.404;2023-04-25T04:48:31;14.88;;;6.35;;
78322;SDS011;67583;50.616;-3.404;2023-04-25T04:51:00;12.63;;;6.38;;
78322;SDS011;67583;50.616;-3.404;2023-04-25T04:53:25;13.02;;;6.03;;
78322;SDS011;67583;50.616;-3.404;2023-04-25T04:55:51;14.73;;;5.93;;
78322;SDS011;67583;50.616;-3.404;2023-04-25T04:58:16;16.67;;;7.03;;
78322;SDS011;67583;50.616;-3.404;2023-04-25T05:03:07;19.27;;;6.50;;
78322;SDS011;67583;50.616;-3.404;2023-04-25T05:05:32;10.85;;;4.78;;
78322;SDS011;67583;50.616;-3.404;2023-04-25T05:10:23;11.50;;;5.47;;
78322;SDS011;67583;50.616;-3.404;2023-04-25T05:12:48;12.57;;;5.93;;
78322;SDS011;67583;50.616;-3.404;2023-04-25T05:15:13;11.35;;;4.95;;
78322;SDS011;67583;50.616;-3.404;2023-04-25T05:17:39;9.85;;;5.10;;
78322;SDS011;67583;50.616;-3.404;2023-04-25T05:20:08;12.93;;;4.85;;
78322;SDS011;67583;50.616;-3.404;2023-04-25T05:22:36;9.13;;;5.13;;
78322;SDS011;67583;50.616;-3.404;2023-04-25T05:25:02;9.07;;;5.22;;
78322;SDS011;67583;50.616;-3.404;2023-04-25T05:27:28;11.90;;;5.55;;
78322;SDS011;67583;50.616;-3.404;2023-04-25T05:29:54;15.43;;;4.97;;
78322;SDS011;67583;50.616;-3.404;2023-04-25T05:32:19;12.88;;;5.10;;
78322;SDS011;67583;50.616;-3.404;2023-04-25T05:37:10;8.68;;;4.55;;
78322;SDS011;67583;50.616;-3.404;2023-04-25T05:39:35;5.70;;;3.80;;
78322;SDS011;67583;50.616;-3.404;2023-04-25T05:42:01;10.63;;;4.78;;
78322;SDS011;67583;50.616;-3.404;2023-04-25T05:44:27;8.00;;;4.38;;
78322;SDS011;67583;50.616;-3.404;2023-04-25T05:46:53;9.23;;;4.22;;
78322;SDS011;67583;50.616;-3.404;2023-04-25T05:49:18;12.13;;;4.47;;
78322;SDS011;67583;50.616;-3.404;2023-04-25T05:54:08;9.27;;;3.53;;
78322;SDS011;67583;50.616;-3.404;2023-04-25T05:59:00;5.93;;;3.85;;
78322;SDS011;67583;50.616;-3.404;2023-04-25T06:01:25;12.55;;;4.15;;
78322;SDS011;67583;50.616;-3.404;2023-04-25T06:03:51;9.10;;;4.32;;
78322;SDS011;67583;50.616;-3.404;2023-04-25T06:06:17;10.98;;;4.22;;
78322;SDS011;67583;50.616;-3.404;2023-04-25T06:08:43;5.70;;;3.35;;
78322;SDS011;67583;50.616;-3.404;2023-04-25T06:11:08;7.60;;;3.42;;
78322;SDS011;67583;50.616;-3.404;2023-04-25T06:13:33;9.80;;;4.55;;
78322;SDS011;67583;50.616;-3.404;2023-04-25T06:15:59;5.22;;;3.00;;
78322;SDS011;67583;50.616;-3.404;2023-04-25T06:18:25;11.25;;;3.17;;
78322;SDS011;67583;50.616;-3.404;2023-04-25T06:20:50;12.13;;;3.47;;
78322;SDS011;67583;50.616;-3.404;2023-04-25T06:25:40;9.57;;;3.27;;
78322;SDS011;67583;50.616;-3.404;2023-04-25T06:30:31;10.17;;;3.43;;
78322;SDS011;67583;50.616;-3.404;2023-04-25T06:35:22;8.55;;;3.30;;
78322;SDS011;67583;50.616;-3.404;2023-04-25T06:40:13;10.03;;;3.63;;
78322;SDS011;67583;50.616;-3.404;2023-04-25T06:42:38;7.95;;;3.13;;
78322;SDS011;67583;50.616;-3.404;2023-04-25T06:47:29;8.05;;;3.13;;
78322;SDS011;67583;50.616;-3.404;2023-04-25T06:49:55;11.25;;;3.95;;
78322;SDS011;67583;50.616;-3.404;2023-04-25T06:54:45;8.80;;;3.95;;
78322;SDS011;67583;50.616;-3.404;2023-04-25T06:57:11;6.70;;;3.10;;
78322;SDS011;67583;50.616;-3.404;2023-04-25T06:59:36;9.45;;;3.80;;
78322;SDS011;67583;50.616;-3.404;2023-04-25T07:02:02;14.45;;;3.70;;
78322;SDS011;67583;50.616;-3.404;2023-04-25T07:04:28;7.95;;;3.90;;
78322;SDS011;67583;50.616;-3.404;2023-04-25T07:06:53;7.15;;;3.55;;
78322;SDS011;67583;50.616;-3.404;2023-04-25T07:09:19;8.38;;;3.53;;
78322;SDS011;67583;50.616;-3.404;2023-04-25T07:11:45;11.43;;;3.55;;
78322;SDS011;67583;50.616;-3.404;2023-04-25T07:14:10;14.15;;;4.32;;
78322;SDS011;67583;50.616;-3.404;2023-04-25T07:16:36;11.57;;;3.35;;
78322;SDS011;67583;50.616;-3.404;2023-04-25T07:19:01;13.35;;;3.50;;
78322;SDS011;67583;50.616;-3.404;2023-04-25T07:23:52;8.30;;;3.83;;
78322;SDS011;67583;50.616;-3.404;2023-04-25T07:26:17;7.85;;;3.80;;
78322;SDS011;67583;50.616;-3.404;2023-04-25T07:31:08;9.85;;;4.00;;
78322;SDS011;67583;50.616;-3.404;2023-04-25T07:33:34;6.63;;;4.07;;
78322;SDS011;67583;50.616;-3.404;2023-04-25T07:35:59;6.68;;;3.03;;
78322;SDS011;67583;50.616;-3.404;2023-04-25T07:38:25;7.32;;;2.95;;
78322;SDS011;67583;50.616;-3.404;2023-04-25T07:40:50;6.32;;;2.40;;
78322;SDS011;67583;50.616;-3.404;2023-04-25T07:43:16;9.55;;;3.80;;
78322;SDS011;67583;50.616;-3.404;2023-04-25T07:45:44;5.72;;;3.00;;
78322;SDS011;67583;50.616;-3.404;2023-04-25T07:48:10;8.95;;;3.22;;
78322;SDS011;67583;50.616;-3.404;2023-04-25T07:50:35;9.25;;;3.70;;
78322;SDS011;67583;50.616;-3.404;2023-04-25T07:53:01;7.47;;;2.80;;
78322;SDS011;67583;50.616;-3.404;2023-04-25T07:55:27;5.53;;;2.80;;
78322;SDS011;67583;50.616;-3.404;2023-04-25T07:57:52;7.25;;;2.60;;
78322;SDS011;67583;50.616;-3.404;2023-04-25T08:00:18;6.50;;;2.63;;
78322;SDS011;67583;50.616;-3.404;2023-04-25T08:02:44;5.05;;;2.50;;
78322;SDS011;67583;50.616;-3.404;2023-04-25T08:05:09;7.32;;;3.00;;
78322;SDS011;67583;50.616;-3.404;2023-04-25T08:07:39;7.88;;;3.17;;
78322;SDS011;67583;50.616;-3.404;2023-04-25T08:10:05;7.13;;;2.85;;
78322;SDS011;67583;50.616;-3.404;2023-04-25T08:12:31;8.00;;;2.72;;
78322;SDS011;67583;50.616;-3.404;2023-04-25T08:14:57;6.70;;;3.60;;
78322;SDS011;67583;50.616;-3.404;2023-04-25T08:17:22;8.93;;;3.00;;
78322;SDS011;67583;50.616;-3.404;2023-04-25T08:19:48;5.85;;;3.05;;
78322;SDS011;67583;50.616;-3.404;2023-04-25T08:22:14;4.25;;;2.13;;
78322;SDS011;67583;50.616;-3.404;2023-04-25T08:24:39;7.55;;;2.53;;
78322;SDS011;67583;50.616;-3.404;2023-04-25T08:27:05;7.03;;;2.45;;
78322;SDS011;67583;50.616;-3.404;2023-04-25T08:29:31;5.85;;;2.05;;
78322;SDS011;67583;50.616;-3.404;2023-04-25T08:31:56;3.10;;;1.90;;
78322;SDS011;67583;50.616;-3.404;2023-04-25T08:34:22;4.22;;;2.45;;
78322;SDS011;67583;50.616;-3.404;2023-04-25T08:36:47;4.53;;;2.10;;
78322;SDS011;67583;50.616;-3.404;2023-04-25T08:39:13;5.57;;;2.53;;
78322;SDS011;67583;50.616;-3.404;2023-04-25T08:41:38;6.45;;;2.50;;
78322;SDS011;67583;50.616;-3.404;2023-04-25T08:44:05;5.65;;;2.35;;
78322;SDS011;67583;50.616;-3.404;2023-04-25T08:46:34;7.68;;;2.40;;
78322;SDS011;67583;50.616;-3.404;2023-04-25T08:49:03;9.20;;;2.50;;
78322;SDS011;67583;50.616;-3.404;2023-04-25T08:51:31;6.50;;;2.22;;
78322;SDS011;67583;50.616;-3.404;2023-04-25T08:53:57;7.45;;;2.58;;
78322;SDS011;67583;50.616;-3.404;2023-04-25T08:56:38;7.70;;;2.40;;
78322;SDS011;67583;50.616;-3.404;2023-04-25T08:59:04;5.47;;;2.53;;
78322;SDS011;67583;50.616;-3.404;2023-04-25T09:01:32;4.03;;;2.00;;
78322;SDS011;67583;50.616;-3.404;2023-04-25T09:04:00;5.45;;;2.85;;
78322;SDS011;67583;50.616;-3.404;2023-04-25T09:06:25;7.22;;;2.65;;
78322;SDS011;67583;50.616;-3.404;2023-04-25T09:08:51;5.90;;;2.85;;
78322;SDS011;67583;50.616;-3.404;2023-04-25T09:11:16;7.35;;;2.60;;
78322;SDS011;67583;50.616;-3.404;2023-04-25T09:13:42;6.32;;;2.22;;
78322;SDS011;67583;50.616;-3.404;2023-04-25T09:16:07;6.43;;;2.72;;
78322;SDS011;67583;50.616;-3.404;2023-04-25T09:18:34;6.88;;;2.53;;
78322;SDS011;67583;50.616;-3.404;2023-04-25T09:21:10;8.32;;;2.35;;
78322;SDS011;67583;50.616;-3.404;2023-04-25T09:23:46;6.20;;;2.30;;
78322;SDS011;67583;50.616;-3.404;2023-04-25T09:26:16;9.20;;;2.65;;
78322;SDS011;67583;50.616;-3.404;2023-04-25T09:28:43;6.82;;;2.38;;
78322;SDS011;67583;50.616;-3.404;2023-04-25T09:31:11;6.75;;;2.05;;
78322;SDS011;67583;50.616;-3.404;2023-04-25T09:33:37;7.65;;;2.53;;
78322;SDS011;67583;50.616;-3.404;2023-04-25T09:38:29;4.53;;;2.30;;
78322;SDS011;67583;50.616;-3.404;2023-04-25T09:40:55;13.38;;;2.83;;
78322;SDS011;67583;50.616;-3.404;2023-04-25T09:43:22;5.15;;;1.90;;
78322;SDS011;67583;50.616;-3.404;2023-04-25T09:45:48;9.63;;;2.97;;
78322;SDS011;67583;50.616;-3.404;2023-04-25T09:48:18;5.43;;;2.30;;
78322;SDS011;67583;50.616;-3.404;2023-04-25T09:50:44;6.60;;;2.22;;
78322;SDS011;67583;50.616;-3.404;2023-04-25T09:53:10;8.50;;;3.03;;
78322;SDS011;67583;50.616;-3.404;2023-04-25T09:55:36;12.82;;;2.90;;
78322;SDS011;67583;50.616;-3.404;2023-04-25T09:58:05;9.57;;;2.45;;
78322;SDS011;67583;50.616;-3.404;2023-04-25T10:00:32;6.07;;;2.55;;
78322;SDS011;67583;50.616;-3.404;2023-04-25T10:02:57;7.47;;;2.65;;
78322;SDS011;67583;50.616;-3.404;2023-04-25T10:05:26;4.65;;;2.28;;
78322;SDS011;67583;50.616;-3.404;2023-04-25T10:07:52;4.50;;;2.13;;
78322;SDS011;67583;50.616;-3.404;2023-04-25T10:10:18;6.97;;;2.30;;
78322;SDS011;67583;50.616;-3.404;2023-04-25T10:12:44;6.03;;;2.33;;
78322;SDS011;67583;50.616;-3.404;2023-04-25T10:15:12;5.10;;;2.67;;
78322;SDS011;67583;50.616;-3.404;2023-04-25T10:17:37;9.73;;;3.30;;
78322;SDS011;67583;50.616;-3.404;2023-04-25T10:20:03;7.65;;;2.38;;
78322;SDS011;67583;50.616;-3.404;2023-04-25T10:22:36;7.35;;;2.15;;
78322;SDS011;67583;50.616;-3.404;2023-04-25T10:25:02;7.70;;;3.17;;
78322;SDS011;67583;50.616;-3.404;2023-04-25T10:27:29;8.85;;;2.53;;
78322;SDS011;67583;50.616;-3.404;2023-04-25T10:32:33;5.50;;;2.45;;
78322;SDS011;67583;50.616;-3.404;2023-04-25T10:35:13;7.90;;;2.67;;
78322;SDS011;67583;50.616;-3.404;2023-04-25T10:40:23;9.13;;;3.00;;
78322;SDS011;67583;50.616;-3.404;2023-04-25T10:42:51;5.32;;;2.47;;
78322;SDS011;67583;50.616;-3.404;2023-04-25T10:45:17;3.45;;;2.05;;
78322;SDS011;67583;50.616;-3.404;2023-04-25T10:47:43;7.43;;;2.35;;
78322;SDS011;67583;50.616;-3.404;2023-04-25T10:50:09;5.93;;;2.70;;
78322;SDS011;67583;50.616;-3.404;2023-04-25T10:52:35;8.98;;;2.38;;
78322;SDS011;67583;50.616;-3.404;2023-04-25T10:55:04;9.07;;;2.67;;
78322;SDS011;67583;50.616;-3.404;2023-04-25T10:57:36;9.00;;;2.38;;
78322;SDS011;67583;50.616;-3.404;2023-04-25T11:02:30;6.70;;;2.40;;
78322;SDS011;67583;50.616;-3.404;2023-04-25T11:04:58;7.22;;;2.92;;
78322;SDS011;67583;50.616;-3.404;2023-04-25T11:10:16;8.25;;;2.35;;
78322;SDS011;67583;50.616;-3.404;2023-04-25T11:12:42;8.02;;;2.97;;
78322;SDS011;67583;50.616;-3.404;2023-04-25T11:15:07;7.72;;;2.38;;
78322;SDS011;67583;50.616;-3.404;2023-04-25T11:17:33;6.15;;;2.45;;
78322;SDS011;67583;50.616;-3.404;2023-04-25T11:19:59;7.95;;;2.40;;
78322;SDS011;67583;50.616;-3.404;2023-04-25T11:22:26;8.60;;;3.25;;
78322;SDS011;67583;50.616;-3.404;2023-04-25T11:24:52;6.57;;;1.98;;
78322;SDS011;67583;50.616;-3.404;2023-04-25T11:27:17;7.32;;;2.88;;
78322;SDS011;67583;50.616;-3.404;2023-04-25T11:29:43;8.85;;;2.47;;
78322;SDS011;67583;50.616;-3.404;2023-04-25T11:32:08;8.40;;;2.25;;
78322;SDS011;67583;50.616;-3.404;2023-04-25T11:34:33;6.70;;;2.55;;
78322;SDS011;67583;50.616;-3.404;2023-04-25T11:37:00;7.68;;;2.08;;
78322;SDS011;67583;50.616;-3.404;2023-04-25T11:39:26;6.43;;;2.40;;
78322;SDS011;67583;50.616;-3.404;2023-04-25T11:41:52;5.88;;;2.33;;
78322;SDS011;67583;50.616;-3.404;2023-04-25T11:44:19;8.25;;;2.60;;
78322;SDS011;67583;50.616;-3.404;2023-04-25T11:46:45;8.05;;;2.35;;
78322;SDS011;67583;50.616;-3.404;2023-04-25T11:49:11;5.47;;;2.30;;
78322;SDS011;67583;50.616;-3.404;2023-04-25T11:51:43;6.95;;;2.50;;
78322;SDS011;67583;50.616;-3.404;2023-04-25T11:54:10;8.05;;;2.35;;
78322;SDS011;67583;50.616;-3.404;2023-04-25T11:56:37;7.60;;;3.47;;
78322;SDS011;67583;50.616;-3.404;2023-04-25T11:59:04;3.80;;;1.90;;
78322;SDS011;67583;50.616;-3.404;2023-04-25T12:03:58;5.60;;;2.17;;
78322;SDS011;67583;50.616;-3.404;2023-04-25T12:06:38;7.93;;;2.60;;
78322;SDS011;67583;50.616;-3.404;2023-04-25T12:09:07;5.45;;;2.30;;
78322;SDS011;67583;50.616;-3.404;2023-04-25T12:14:09;5.60;;;2.22;;
78322;SDS011;67583;50.616;-3.404;2023-04-25T12:16:42;7.93;;;2.20;;
78322;SDS011;67583;50.616;-3.404;2023-04-25T12:19:09;4.20;;;2.13;;
78322;SDS011;67583;50.616;-3.404;2023-04-25T12:21:34;7.38;;;2.72;;
78322;SDS011;67583;50.616;-3.404;2023-04-25T12:24:22;7.03;;;2.80;;
78322;SDS011;67583;50.616;-3.404;2023-04-25T12:29:29;11.50;;;3.15;;
78322;SDS011;67583;50.616;-3.404;2023-04-25T12:31:56;4.78;;;2.03;;
78322;SDS011;67583;50.616;-3.404;2023-04-25T12:34:22;8.98;;;2.20;;
78322;SDS011;67583;50.616;-3.404;2023-04-25T12:36:48;12.10;;;2.55;;
78322;SDS011;67583;50.616;-3.404;2023-04-25T12:39:19;5.18;;;1.92;;
78322;SDS011;67583;50.616;-3.404;2023-04-25T12:41:45;8.70;;;2.42;;
78322;SDS011;67583;50.616;-3.404;2023-04-25T12:44:11;5.72;;;2.15;;
78322;SDS011;67583;50.616;-3.404;2023-04-25T12:46:37;7.72;;;2.38;;
78322;SDS011;67583;50.616;-3.404;2023-04-25T12:49:03;5.93;;;2.25;;
78322;SDS011;67583;50.616;-3.404;2023-04-25T12:51:29;6.47;;;2.30;;
78322;SDS011;67583;50.616;-3.404;2023-04-25T12:53:55;6.07;;;2.22;;
78322;SDS011;67583;50.616;-3.404;2023-04-25T12:56:20;5.10;;;2.03;;
78322;SDS011;67583;50.616;-3.404;2023-04-25T12:58:47;7.93;;;2.38;;
78322;SDS011;67583;50.616;-3.404;2023-04-25T13:01:13;5.13;;;1.80;;
78322;SDS011;67583;50.616;-3.404;2023-04-25T13:03:39;8.90;;;2.30;;
78322;SDS011;67583;50.616;-3.404;2023-04-25T13:06:05;7.15;;;2.25;;
78322;SDS011;67583;50.616;-3.404;2023-04-25T13:08:31;6.88;;;2.15;;
78322;SDS011;67583;50.616;-3.404;2023-04-25T13:10:56;8.40;;;2.28;;
78322;SDS011;67583;50.616;-3.404;2023-04-25T13:13:22;10.02;;;2.47;;
78322;SDS011;67583;50.616;-3.404;2023-04-25T13:15:47;5.35;;;2.03;;
78322;SDS011;67583;50.616;-3.404;2023-04-25T13:18:14;6.28;;;1.98;;
78322;SDS011;67583;50.616;-3.404;2023-04-25T13:20:40;7.93;;;2.33;;
78322;SDS011;67583;50.616;-3.404;2023-04-25T13:23:05;8.15;;;2.38;;
78322;SDS011;67583;50.616;-3.404;2023-04-25T13:25:31;7.30;;;2.30;;
78322;SDS011;67583;50.616;-3.404;2023-04-25T13:27:57;5.72;;;2.03;;
78322;SDS011;67583;50.616;-3.404;2023-04-25T13:30:22;7.35;;;2.08;;
78322;SDS011;67583;50.616;-3.404;2023-04-25T13:32:48;4.63;;;1.92;;
78322;SDS011;67583;50.616;-3.404;2023-04-25T13:35:14;13.35;;;3.53;;
78322;SDS011;67583;50.616;-3.404;2023-04-25T13:37:40;5.82;;;2.00;;
78322;SDS011;67583;50.616;-3.404;2023-04-25T13:40:07;5.43;;;2.13;;
78322;SDS011;67583;50.616;-3.404;2023-04-25T13:42:34;5.50;;;1.80;;
78322;SDS011;67583;50.616;-3.404;2023-04-25T13:45:00;5.22;;;2.78;;
78322;SDS011;67583;50.616;-3.404;2023-04-25T13:47:26;5.95;;;2.13;;
78322;SDS011;67583;50.616;-3.404;2023-04-25T13:49:52;5.88;;;1.83;;
78322;SDS011;67583;50.616;-3.404;2023-04-25T13:52:18;4.72;;;2.08;;
78322;SDS011;67583;50.616;-3.404;2023-04-25T13:54:43;4.65;;;2.33;;
78322;SDS011;67583;50.616;-3.404;2023-04-25T13:57:11;4.30;;;2.10;;
78322;SDS011;67583;50.616;-3.404;2023-04-25T13:59:36;4.68;;;1.95;;
78322;SDS011;67583;50.616;-3.404;2023-04-25T14:02:02;7.45;;;2.20;;
78322;SDS011;67583;50.616;-3.404;2023-04-25T14:04:28;6.20;;;2.00;;
78322;SDS011;67583;50.616;-3.404;2023-04-25T14:06:53;7.60;;;2.10;;
78322;SDS011;67583;50.616;-3.404;2023-04-25T14:09:18;8.63;;;2.30;;
78322;SDS011;67583;50.616;-3.404;2023-04-25T14:11:46;3.67;;;2.13;;
78322;SDS011;67583;50.616;-3.404;2023-04-25T14:14:11;4.10;;;2.47;;
78322;SDS011;67583;50.616;-3.404;2023-04-25T14:16:41;9.00;;;2.03;;
78322;SDS011;67583;50.616;-3.404;2023-04-25T14:19:06;6.47;;;2.10;;
78322;SDS011;67583;50.616;-3.404;2023-04-25T14:21:31;6.53;;;2.10;;
78322;SDS011;67583;50.616;-3.404;2023-04-25T14:23:57;3.97;;;1.80;;
78322;SDS011;67583;50.616;-3.404;2023-04-25T14:26:23;7.40;;;2.30;;
78322;SDS011;67583;50.616;-3.404;2023-04-25T14:28:48;5.65;;;1.67;;
78322;SDS011;67583;50.616;-3.404;2023-04-25T14:31:14;9.82;;;1.90;;
78322;SDS011;67583;50.616;-3.404;2023-04-25T14:33:40;9.05;;;3.08;;
78322;SDS011;67583;50.616;-3.404;2023-04-25T14:36:07;8.20;;;1.90;;
78322;SDS011;67583;50.616;-3.404;2023-04-25T14:38:33;5.03;;;1.85;;
78322;SDS011;67583;50.616;-3.404;2023-04-25T14:40:58;6.38;;;2.25;;
78322;SDS011;67583;50.616;-3.404;2023-04-25T14:43:24;7.32;;;2.28;;
78322;SDS011;67583;50.616;-3.404;2023-04-25T14:45:49;3.28;;;1.77;;
78322;SDS011;67583;50.616;-3.404;2023-04-25T14:48:15;3.05;;;2.20;;
78322;SDS011;67583;50.616;-3.404;2023-04-25T14:50:42;6.32;;;2.00;;
78322;SDS011;67583;50.616;-3.404;2023-04-25T14:53:08;8.80;;;2.22;;
78322;SDS011;67583;50.616;-3.404;2023-04-25T14:55:33;3.90;;;1.60;;
78322;SDS011;67583;50.616;-3.404;2023-04-25T14:57:58;4.55;;;1.50;;
78322;SDS011;67583;50.616;-3.404;2023-04-25T15:00:24;5.18;;;2.00;;
78322;SDS011;67583;50.616;-3.404;2023-04-25T15:02:50;3.63;;;1.73;;
78322;SDS011;67583;50.616;-3.404;2023-04-25T15:05:15;6.72;;;2.92;;
78322;SDS011;67583;50.616;-3.404;2023-04-25T15:07:41;5.68;;;2.20;;
78322;SDS011;67583;50.616;-3.404;2023-04-25T15:10:07;3.83;;;2.00;;
78322;SDS011;67583;50.616;-3.404;2023-04-25T15:12:38;5.95;;;2.03;;
78322;SDS011;67583;50.616;-3.404;2023-04-25T15:15:04;3.97;;;2.42;;
78322;SDS011;67583;50.616;-3.404;2023-04-25T15:17:31;5.95;;;1.80;;
78322;SDS011;67583;50.616;-3.404;2023-04-25T15:19:56;6.28;;;2.10;;
78322;SDS011;67583;50.616;-3.404;2023-04-25T15:22:22;7.05;;;1.98;;
78322;SDS011;67583;50.616;-3.404;2023-04-25T15:24:47;5.50;;;3.05;;
78322;SDS011;67583;50.616;-3.404;2023-04-25T15:27:13;3.83;;;2.03;;
78322;SDS011;67583;50.616;-3.404;2023-04-25T15:29:38;4.15;;;2.28;;
78322;SDS011;67583;50.616;-3.404;2023-04-25T15:32:05;6.25;;;1.90;;
78322;SDS011;67583;50.616;-3.404;2023-04-25T15:34:31;8.65;;;1.90;;
78322;SDS011;67583;50.616;-3.404;2023-04-25T15:36:56;4.65;;;2.00;;
78322;SDS011;67583;50.616;-3.404;2023-04-25T15:39:22;13.60;;;3.25;;
78322;SDS011;67583;50.616;-3.404;2023-04-25T15:41:48;3.60;;;1.80;;
78322;SDS011;67583;50.616;-3.404;2023-04-25T15:44:13;7.88;;;1.88;;
78322;SDS011;67583;50.616;-3.404;2023-04-25T15:46:38;5.65;;;2.00;;
78322;SDS011;67583;50.616;-3.404;2023-04-25T15:49:04;7.50;;;2.30;;
78322;SDS011;67583;50.616;-3.404;2023-04-25T15:51:30;6.18;;;2.15;;
78322;SDS011;67583;50.616;-3.404;2023-04-25T15:53:55;3.58;;;1.50;;
78322;SDS011;67583;50.616;-3.404;2023-04-25T15:56:21;9.35;;;1.80;;
78322;SDS011;67583;50.616;-3.404;2023-04-25T15:58:46;2.97;;;1.90;;
78322;SDS011;67583;50.616;-3.404;2023-04-25T16:01:12;4.20;;;1.70;;
78322;SDS011;67583;50.616;-3.404;2023-04-25T16:03:37;9.13;;;2.28;;
78322;SDS011;67583;50.616;-3.404;2023-04-25T16:06:03;9.50;;;2.53;;
78322;SDS011;67583;50.616;-3.404;2023-04-25T16:08:29;3.63;;;1.70;;
78322;SDS011;67583;50.616;-3.404;2023-04-25T16:10:58;8.05;;;1.90;;
78322;SDS011;67583;50.616;-3.404;2023-04-25T16:13:24;6.05;;;1.83;;